Bradford Regional Airport
KBFD : now visible

Airfield :











YOU CAN JOIN US ON...

 
LOGIN :

Register | Disclaimer

   EN    FR    IT 

 









Legend :    VFR   Marginal VFR   IFR   Intensive IFR   Very Intensive IFR
Visi :
Ceiling :
>= 8 km
>= 3000ft
5 to 8 km
1000 to 3000 ft
1500m to 5 km
500 to 1000 ft
800 to 1500m
200 to 500 ft
< 800m
< 200 ft
Symbols :   Thunderstorms  Fog  Heavy snow  Heavy precipitations  Wind > 20 kt






- Airport Elevation : 2143 ft
- IATA code : BFD


KBFD - Bradford Regional

CURRENT METAR :
  • 170703Z AUTO 02008KT 3SM -SN OVC010 M02/M06 A2921 RMK AO2 CIG 007V013 PRESFR P0000 T10221056

EXPIRED METARs :
  • 170653Z AUTO 07008KT 1 3/4SM -SN OVC010 M02/M06 A2923 RMK AO2 CIG 007V014 SLP917 P0002 T10221061
  • 170644Z AUTO VRB06KT 3SM -SN OVC010 M03/M06 A2923 RMK AO2 CIG 007V014 P0001 T10281061
  • 170627Z AUTO 05006KT 2SM -SN OVC008 M02/M06 A2925 RMK AO2 CIG 007V012 P0000 T10221056
  • 170619Z AUTO 05011KT 2 1/2SM -SN BKN010 OVC014 M02/M06 A2925 RMK AO2 CIG 007V012 PRESFR P0000 T10171056
  • 170602Z AUTO 06008KT 3SM -SN BKN013 OVC018 M02/M05 A2928 RMK AO2 PRESFR P0000 T10171050
  • 170545Z AUTO 08010KT 2SM -SN OVC015 M02/M05 A2932 RMK AO2 PRESFR P0004 T10171050
  • 170453Z AUTO 06010G17KT 1/2SM SN VV006 M03/M06 A2940 RMK AO2 PRESFR SLP977 P0008 T10281061 410281206

TAF KBFD
Valid from the 17 at 06:00 until the 18 at 06:00 UTC


170557Z 1706/1806 06008KT 2SM -SN OVC015 WS020/11040KT
FM171100 35012G20KT 1SM -SN OVC007
FM180000 31018G28KT 2SM -SN BR OVC010
FM180200 30020G30KT 6SM BLSN OVC015
KZOB FIR / North America



MET'MAP, your aeronautical weather chart ! - Copyright ORBIFLY December 2007 - Disclaimer

ORBIFLY MET'MAP TEAM :

Programming & Development : Alexandra Zaïnal
Concept & original design : Baudouin d'Aumeries
Assistance for programming : Marc-Olivier Méhu
Technical & hardware support : Manuel Goepfert

Contact : metmap@orbifly.com




SOURCES & CREDITS :

   NOAA       Earth
Advisory